地図

経路データ

SID SEASON NUMBER BASIN SUBBASIN NAME ISO_TIME NATURE LAT LON WMO_WIND WMO_PRES WMO_AGENCY TRACK_TYPE DIST2LAND LANDFALL IFLAG USA_AGENCY USA_ATCF_ID USA_LAT USA_LON USA_RECORD USA_STATUS USA_WIND USA_PRES USA_SSHS USA_R34_NE USA_R34_SE USA_R34_SW USA_R34_NW USA_R50_NE USA_R50_SE USA_R50_SW USA_R50_NW USA_R64_NE USA_R64_SE USA_R64_SW USA_R64_NW USA_POCI USA_ROCI USA_RMW USA_EYE TOKYO_LAT TOKYO_LON TOKYO_GRADE TOKYO_WIND TOKYO_PRES TOKYO_R50_DIR TOKYO_R50_LONG TOKYO_R50_SHORT TOKYO_R30_DIR TOKYO_R30_LONG TOKYO_R30_SHORT TOKYO_LAND CMA_LAT CMA_LON CMA_CAT CMA_WIND CMA_PRES HKO_LAT HKO_LON HKO_CAT HKO_WIND HKO_PRES NEWDELHI_LAT NEWDELHI_LON NEWDELHI_GRADE NEWDELHI_WIND NEWDELHI_PRES NEWDELHI_CI NEWDELHI_DP NEWDELHI_POCI REUNION_LAT REUNION_LON REUNION_TYPE REUNION_WIND REUNION_PRES REUNION_TNUM REUNION_CI REUNION_RMW REUNION_R34_NE REUNION_R34_SE REUNION_R34_SW REUNION_R34_NW REUNION_R50_NE REUNION_R50_SE REUNION_R50_SW REUNION_R50_NW REUNION_R64_NE REUNION_R64_SE REUNION_R64_SW REUNION_R64_NW BOM_LAT BOM_LON BOM_TYPE BOM_WIND BOM_PRES BOM_TNUM BOM_CI BOM_RMW BOM_R34_NE BOM_R34_SE BOM_R34_SW BOM_R34_NW BOM_R50_NE BOM_R50_SE BOM_R50_SW BOM_R50_NW BOM_R64_NE BOM_R64_SE BOM_R64_SW BOM_R64_NW BOM_ROCI BOM_POCI BOM_EYE BOM_POS_METHOD BOM_PRES_METHOD NADI_LAT NADI_LON NADI_CAT NADI_WIND NADI_PRES WELLINGTON_LAT WELLINGTON_LON WELLINGTON_WIND WELLINGTON_PRES DS824_LAT DS824_LON DS824_STAGE DS824_WIND DS824_PRES TD9636_LAT TD9636_LON TD9636_STAGE TD9636_WIND TD9636_PRES TD9635_LAT TD9635_LON TD9635_WIND TD9635_PRES TD9635_ROCI NEUMANN_LAT NEUMANN_LON NEUMANN_CLASS NEUMANN_WIND NEUMANN_PRES MLC_LAT MLC_LON MLC_CLASS MLC_WIND MLC_PRES USA_GUST BOM_GUST BOM_GUST_PER REUNION_GUST REUNION_GUST_PER USA_SEAHGT USA_SEARAD_NE USA_SEARAD_SE USA_SEARAD_SW USA_SEARAD_NW STORM_SPEED STORM_DIR
1989265S05085 1990 103 SI MM NOT_NAMED 1989-09-21 18:00:00 TS -5.00000 85.0000 main 1315 1311 O___________O_ jtwc_sh SH031990 -5.00000 85.0000 20 -1 -5.00000 85.0000 TC 20 16 242
1989265S05085 1990 103 SI MM NOT_NAMED 1989-09-21 21:00:00 TS -5.37019 84.2952 main 1331 1324 P___________P_ SH031990 -5.37019 84.2952 20 -1 -5.37019 84.2952 TC 20 16 243
1989265S05085 1990 103 SI MM NOT_NAMED 1989-09-22 00:00:00 TS -5.70000 83.6000 main 1341 1339 O___________O_ jtwc_sh SH031990 -5.70000 83.6000 20 -1 -5.70000 83.6000 TC 20 15 247
1989265S05085 1990 103 SI MM NOT_NAMED 1989-09-22 03:00:00 TS -5.96485 82.9149 main 1357 1353 P___________P_ SH031990 -5.96485 82.9149 20 -1 -5.96485 82.9149 TC 20 15 250
1989265S05085 1990 103 SI MM NOT_NAMED 1989-09-22 06:00:00 TS -6.20000 82.2000 main 1367 1366 O___________O_ jtwc_sh SH031990 -6.20000 82.2000 20 -1 -6.20000 82.2000 TC 20 16 252
1989265S05085 1990 103 SI MM NOT_NAMED 1989-09-22 09:00:00 TS -6.45751 81.4000 main 1392 1390 P___________P_ SH031990 -6.45751 81.4000 20 -1 -6.45751 81.4000 TC 20 17 253
1989265S05085 1990 103 SI MM NOT_NAMED 1989-09-22 12:00:00 TS -6.70000 80.6000 main 1411 1411 O___________O_ jtwc_sh SH031990 -6.70000 80.6000 20 -1 -6.70000 80.6000 TC 20 16 253
1989265S05085 1990 103 SI MM NOT_NAMED 1989-09-22 15:00:00 TS -6.91489 79.8700 main 1436 1436 P___________P_ SH031990 -6.91489 79.8700 22 -1 -6.91489 79.8700 TC 22 14 254
1989265S05085 1990 103 SI MM NOT_NAMED 1989-09-22 18:00:00 TS -7.10000 79.2000 main 1465 1465 O___________O_ jtwc_sh SH031990 -7.10000 79.2000 25 -1 -7.10000 79.2000 TC 25 13 255
1989265S05085 1990 103 SI MM NOT_NAMED 1989-09-22 21:00:00 TS -7.25739 78.5774 main 1495 1495 P___________P_ SH031990 -7.25739 78.5774 25 -1 -7.25739 78.5774 TC 25 12 256
1989265S05085 1990 103 SI MM NOT_NAMED 1989-09-23 00:00:00 TS -7.40000 78.0000 main 1518 1518 O___________O_ jtwc_sh SH031990 -7.40000 78.0000 25 -1 -7.40000 78.0000 TC 25 12 256
1989265S05085 1990 103 SI MM NOT_NAMED 1989-09-23 03:00:00 TS -7.54240 77.4424 main 1543 1543 P___________P_ SH031990 -7.54240 77.4424 25 -1 -7.54240 77.4424 TC 25 11 255
1989265S05085 1990 103 SI MM NOT_NAMED 1989-09-23 06:00:00 TS -7.70000 76.9000 main 1578 1578 O___________O_ jtwc_sh SH031990 -7.70000 76.9000 25 -1 -7.70000 76.9000 TC 25 11 252
1989265S05085 1990 103 SI MM NOT_NAMED 1989-09-23 09:00:00 TS -7.89993 76.3500 main 1615 1615 P___________P_ SH031990 -7.89993 76.3500 25 -1 -7.89993 76.3500 TC 25 12 250
1989265S05085 1990 103 SI MM NOT_NAMED 1989-09-23 12:00:00 TS -8.10000 75.8000 main 1656 1656 O___________O_ jtwc_sh SH031990 -8.10000 75.8000 25 -1 -8.10000 75.8000 TC 25 11 252
1989265S05085 1990 103 SI MM NOT_NAMED 1989-09-23 15:00:00 TS -8.24989 75.2574 main 1685 1685 P___________P_ SH031990 -8.24989 75.2574 25 -1 -8.24989 75.2574 TC 25 11 255
1989265S05085 1990 103 SI MM NOT_NAMED 1989-09-23 18:00:00 TS -8.40000 74.7000 main 1729 1729 O___________O_ jtwc_sh SH031990 -8.40000 74.7000 25 -1 -8.40000 74.7000 TC 25 12 254
1989265S05085 1990 103 SI MM NOT_NAMED 1989-09-23 21:00:00 TS -8.58498 74.1000 main 1774 1774 P___________P_ SH031990 -8.58498 74.1000 25 -1 -8.58498 74.1000 TC 25 13 251
1989265S05085 1990 103 SI MM NOT_NAMED 1989-09-24 00:00:00 TS -8.80000 73.5000 main 1821 1821 O___________O_ jtwc_sh SH031990 -8.80000 73.5000 25 -1 -8.80000 73.5000 TC 25 12 248
1989265S05085 1990 103 SI MM NOT_NAMED 1989-09-24 03:00:00 TS -9.02724 72.9723 main 1865 1865 P___________P_ SH031990 -9.02724 72.9723 25 -1 -9.02724 72.9723 TC 25 12 245
1989265S05085 1990 103 SI MM NOT_NAMED 1989-09-24 06:00:00 TS -9.30000 72.4000 main 1925 1907 O___________O_ jtwc_sh SH031990 -9.30000 72.4000 25 -1 -9.30000 72.4000 TC 25 14 245
1989265S05085 1990 103 SI MM NOT_NAMED 1989-09-24 09:00:00 TS -9.62007 71.6724 main 1907 1811 P___________P_ SH031990 -9.62007 71.6724 25 -1 -9.62007 71.6724 TC 25 16 245
1989265S05085 1990 103 SI MM NOT_NAMED 1989-09-24 12:00:00 TS -10.0000 70.9000 main 1811 1724 O___________O_ jtwc_sh SH031990 -10.0000 70.9000 25 -1 -10.0000 70.9000 TC 25 17 241
1989265S05085 1990 103 SI MM NOT_NAMED 1989-09-24 15:00:00 TS -10.4274 70.1849 main 1724 1629 P___________P_ SH031990 -10.4274 70.1849 25 -1 -10.4274 70.1849 TC 25 17 237
1989265S05085 1990 103 SI MM NOT_NAMED 1989-09-24 18:00:00 TS -10.9000 69.5000 main 1629 1543 O___________O_ jtwc_sh SH031990 -10.9000 69.5000 25 -1 -10.9000 69.5000 TC 25 17 233
1989265S05085 1990 103 SI MM NOT_NAMED 1989-09-24 21:00:00 TS -11.4223 68.8350 main 1535 1449 P___________P_ SH031990 -11.4223 68.8350 25 -1 -11.4223 68.8350 TC 25 16 232
1989265S05085 1990 103 SI MM NOT_NAMED 1989-09-25 00:00:00 TS -11.9000 68.2000 main 1449 1377 O___________O_ jtwc_sh SH031990 -11.9000 68.2000 25 -1 -11.9000 68.2000 TC 25 15 237
1989265S05085 1990 103 SI MM NOT_NAMED 1989-09-25 03:00:00 TS -12.2223 67.5921 main 1377 1306 P___________P_ SH031990 -12.2223 67.5921 25 -1 -12.2223 67.5921 TC 25 13 243
1989265S05085 1990 103 SI MM NOT_NAMED 1989-09-25 06:00:00 TS -12.5000 67.0000 main 1306 1235 O___________O_ jtwc_sh SH031990 -12.5000 67.0000 25 -1 -12.5000 67.0000 TC 25 14 242
1989265S05085 1990 103 SI MM NOT_NAMED 1989-09-25 09:00:00 TS -12.8651 66.3627 main 1228 1157 P___________P_ SH031990 -12.8651 66.3627 25 -1 -12.8651 66.3627 TC 25 14 239
1989265S05085 1990 103 SI MM NOT_NAMED 1989-09-25 12:00:00 TS -13.2000 65.8000 main 1157 1110 O___________O_ jtwc_sh SH031990 -13.2000 65.8000 25 -1 -13.2000 65.8000 TC 25 11 239
1989265S05085 1990 103 SI MM NOT_NAMED 1989-09-25 15:00:00 TS -13.4223 65.4122 main 1110 1071 P___________P_ SH031990 -13.4223 65.4122 27 -1 -13.4223 65.4122 TC 27 8 240
1989265S05085 1990 103 SI MM NOT_NAMED 1989-09-25 18:00:00 TS -13.6000 65.1000 main 1071 1032 O___________O_ jtwc_sh SH031990 -13.6000 65.1000 30 -1 -13.6000 65.1000 TC 30 7 240
1989265S05085 1990 103 SI MM NOT_NAMED 1989-09-25 21:00:00 TS -13.7773 64.7722 main 1032 986 P___________P_ SH031990 -13.7773 64.7722 30 -1 -13.7773 64.7722 TC 30 8 240
1989265S05085 1990 103 SI MM NOT_NAMED 1989-09-26 00:00:00 TS -14.0000 64.4000 main 986 932 O___________O_ jtwc_sh SH031990 -14.0000 64.4000 30 -1 -14.0000 64.4000 TC 30 10 236
1989265S05085 1990 103 SI MM NOT_NAMED 1989-09-26 03:00:00 TS -14.3199 63.9374 main 924 854 P___________P_ SH031990 -14.3199 63.9374 30 -1 -14.3199 63.9374 TC 30 12 234
1989265S05085 1990 103 SI MM NOT_NAMED 1989-09-26 06:00:00 TS -14.7000 63.4000 main 854 786 O___________O_ jtwc_sh SH031990 -14.7000 63.4000 30 -1 -14.7000 63.4000 TC 30 13 236
1989265S05085 1990 103 SI MM NOT_NAMED 1989-09-26 09:00:00 TS -15.0627 62.7849 main 777 701 P___________P_ SH031990 -15.0627 62.7849 30 -1 -15.0627 62.7849 TC 30 14 235
1989265S05085 1990 103 SI MM NOT_NAMED 1989-09-26 12:00:00 TS -15.5000 62.2000 main 701 631 O___________O_ jtwc_sh SH031990 -15.5000 62.2000 30 -1 -15.5000 62.2000 TC 30 14 225
1989265S05085 1990 103 SI MM NOT_NAMED 1989-09-26 15:00:00 TS -16.0623 61.7623 main 622 545 P___________P_ SH031990 -16.0623 61.7623 30 -1 -16.0623 61.7623 TC 30 14 213
1989265S05085 1990 103 SI MM NOT_NAMED 1989-09-26 18:00:00 TS -16.7000 61.4000 main 545 467 O___________O_ jtwc_sh SH031990 -16.7000 61.4000 30 -1 -16.7000 61.4000 TC 30 15 210
1989265S05085 1990 103 SI MM NOT_NAMED 1989-09-26 21:00:00 TS -17.3350 61.0051 main 467 393 P___________P_ SH031990 -17.3350 61.0051 30 -1 -17.3350 61.0051 TC 30 15 207
1989265S05085 1990 103 SI MM NOT_NAMED 1989-09-27 00:00:00 TS -18.0000 60.7000 main 393 342 O___________O_ jtwc_sh SH031990 -18.0000 60.7000 30 -1 -18.0000 60.7000 TC 30 14 198
1989265S05085 1990 103 SI MM NOT_NAMED 1989-09-27 03:00:00 TS -18.6924 60.5523 main 342 299 P___________P_ SH031990 -18.6924 60.5523 27 -1 -18.6924 60.5523 TC 27 14 188
1989265S05085 1990 103 SI MM NOT_NAMED 1989-09-27 06:00:00 TS -19.4000 60.5000 main 299 O___________O_ jtwc_sh SH031990 -19.4000 60.5000 25 -1 -19.4000 60.5000 TC 25 14 185

IBTrACS Databaseについて

本データベースは、米国NOAAが公開する1842年以降の世界の熱帯低気圧のベストトラックデータアーカイブInternational Best Track Archive for Climate Stewardship (IBTrACS)を、ウェブで閲覧しやすい形式に変換したものです。

最終更新日:2021-10-21